createdAt,value
2018-07-23T00:01:26.164Z,73.71
2018-07-23T00:03:54.598Z,74.32
2018-07-23T00:06:23.100Z,74.78
2018-07-23T00:08:51.598Z,74.94
2018-07-23T00:11:20.139Z,74.80
2018-07-23T00:13:52.664Z,74.63
2018-07-23T00:16:21.142Z,74.69
2018-07-23T00:18:49.583Z,74.70
2018-07-23T00:21:18.022Z,74.53
2018-07-23T00:23:46.496Z,74.92
2018-07-23T00:26:15.024Z,74.33
2018-07-23T00:28:43.460Z,74.18
2018-07-23T00:31:11.879Z,74.77
2018-07-23T00:33:40.307Z,74.93
2018-07-23T00:36:08.790Z,75.42
2018-07-23T00:38:38.181Z,75.21
2018-07-23T00:41:06.681Z,74.45
2018-07-23T00:43:35.148Z,74.42
2018-07-23T00:46:03.694Z,74.31
2018-07-23T00:48:32.169Z,74.12
2018-07-23T00:51:00.653Z,74.06
2018-07-23T00:53:29.175Z,73.83
2018-07-23T00:55:57.708Z,74.19
2018-07-23T00:58:26.147Z,74.55
2018-07-23T01:00:54.635Z,74.43
2018-07-23T01:03:23.120Z,75.32
2018-07-23T01:05:51.530Z,75.54
2018-07-23T01:08:20.120Z,76.00
2018-07-23T01:10:48.667Z,75.48
2018-07-23T01:13:17.153Z,75.13
2018-07-23T01:15:45.666Z,75.84
2018-07-23T01:18:14.214Z,75.20
2018-07-23T01:20:42.724Z,74.90
2018-07-23T01:23:11.328Z,74.78
2018-07-23T01:25:39.864Z,74.71
2018-07-23T01:28:08.385Z,74.86
2018-07-23T01:30:36.834Z,74.88
2018-07-23T01:33:05.281Z,75.83
2018-07-23T01:35:34.388Z,75.42
2018-07-23T01:38:02.879Z,74.62
2018-07-23T01:40:31.360Z,75.29
2018-07-23T01:42:59.842Z,74.61
2018-07-23T01:45:28.294Z,74.53
2018-07-23T01:47:56.724Z,75.31
2018-07-23T01:50:25.217Z,75.93
2018-07-23T01:52:53.742Z,75.75
2018-07-23T01:55:22.169Z,76.50
2018-07-23T01:57:50.737Z,77.01
2018-07-23T02:00:19.281Z,76.44
2018-07-23T02:02:47.752Z,75.01
2018-07-23T02:05:16.203Z,75.95
2018-07-23T02:07:44.755Z,76.72
2018-07-23T02:10:13.220Z,76.84
2018-07-23T02:12:41.729Z,76.94
2018-07-23T02:15:10.201Z,77.11
2018-07-23T02:17:38.725Z,76.37
2018-07-23T02:20:07.269Z,76.96
2018-07-23T02:22:35.764Z,77.90
2018-07-23T02:25:04.338Z,78.26
2018-07-23T02:27:32.860Z,78.40
2018-07-23T02:30:01.508Z,78.50
2018-07-23T02:32:29.989Z,78.04
2018-07-23T02:34:58.461Z,77.72
2018-07-23T02:37:26.968Z,78.01
2018-07-23T02:39:55.434Z,78.35
2018-07-23T02:42:23.948Z,78.79
2018-07-23T02:44:52.510Z,78.34
2018-07-23T02:47:20.962Z,77.95
2018-07-23T02:49:49.415Z,77.53
2018-07-23T02:52:17.959Z,77.78
2018-07-23T02:54:46.427Z,78.12
2018-07-23T02:57:14.926Z,78.31
2018-07-23T02:59:43.404Z,78.26
2018-07-23T03:02:11.921Z,78.72
2018-07-23T03:04:40.490Z,78.70
2018-07-23T03:07:09.047Z,79.06
2018-07-23T03:09:37.526Z,78.10
2018-07-23T03:12:06.081Z,78.22
2018-07-23T03:14:36.037Z,78.68
2018-07-23T03:17:04.613Z,78.34
2018-07-23T03:19:33.030Z,78.47
2018-07-23T03:22:01.654Z,77.63
2018-07-23T03:24:38.456Z,77.75
2018-07-23T03:27:06.937Z,78.12
2018-07-23T03:29:35.418Z,77.94
2018-07-23T03:32:03.919Z,77.91
2018-07-23T03:34:32.358Z,77.86
2018-07-23T03:37:00.944Z,77.30
2018-07-23T03:39:29.471Z,77.86
2018-07-23T03:41:58.028Z,77.55
2018-07-23T03:44:26.526Z,77.58
2018-07-23T03:46:55.104Z,77.46
2018-07-23T03:49:23.600Z,77.18
2018-07-23T03:52:27.108Z,77.30
2018-07-23T03:54:55.558Z,76.50
2018-07-23T03:57:24.055Z,76.73
2018-07-23T03:59:52.629Z,76.85
2018-07-23T04:02:21.063Z,77.18
2018-07-23T04:04:49.501Z,77.14
2018-07-23T04:07:17.976Z,76.72
2018-07-23T04:09:46.446Z,76.70
2018-07-23T04:12:14.946Z,75.70
2018-07-23T04:14:43.484Z,75.53
2018-07-23T04:17:12.001Z,75.71
2018-07-23T04:19:40.477Z,75.74
2018-07-23T04:22:08.979Z,75.12
2018-07-23T04:24:37.458Z,75.56
2018-07-23T04:27:05.937Z,76.02
2018-07-23T04:29:34.360Z,75.21
2018-07-23T04:32:02.878Z,75.13
2018-07-23T04:34:31.293Z,74.99
2018-07-23T04:36:59.889Z,74.68
2018-07-23T04:39:28.425Z,75.05
2018-07-23T04:41:56.957Z,74.44
2018-07-23T04:44:25.499Z,73.91
2018-07-23T04:46:53.981Z,74.26
2018-07-23T04:49:22.517Z,73.68
2018-07-23T04:51:51.053Z,73.85
2018-07-23T04:54:19.646Z,73.66
2018-07-23T04:56:48.249Z,73.13
2018-07-23T04:59:16.646Z,73.13
2018-07-23T05:01:45.106Z,72.89
2018-07-23T05:04:13.574Z,72.71
2018-07-23T05:06:50.924Z,72.82
2018-07-23T05:09:19.439Z,72.46
2018-07-23T05:11:47.977Z,72.32
2018-07-23T05:14:16.553Z,72.13
2018-07-23T05:16:44.993Z,71.81
2018-07-23T05:19:13.575Z,71.18
2018-07-23T05:21:42.162Z,71.44
2018-07-23T05:24:10.626Z,71.14
2018-07-23T05:26:39.070Z,70.95
2018-07-23T05:29:07.584Z,69.99
2018-07-23T05:31:36.289Z,70.30
2018-07-23T05:34:04.869Z,69.63
2018-07-23T05:36:33.386Z,69.44
2018-07-23T05:39:01.926Z,68.29
2018-07-23T05:41:30.412Z,67.80
2018-07-23T05:43:58.944Z,68.02
2018-07-23T05:46:27.522Z,67.75
2018-07-23T05:48:55.957Z,67.42
2018-07-23T05:51:55.812Z,66.43
2018-07-23T05:54:24.361Z,66.47
2018-07-23T05:56:56.891Z,65.52
2018-07-23T05:59:25.520Z,64.64
2018-07-23T06:01:53.961Z,64.38
2018-07-23T06:04:22.489Z,64.93
2018-07-23T06:06:51.162Z,63.87
2018-07-23T06:09:19.590Z,63.06
2018-07-23T06:11:50.385Z,63.04
2018-07-23T06:14:18.890Z,62.70
2018-07-23T06:16:47.374Z,62.39
2018-07-23T06:19:15.993Z,62.48
2018-07-23T06:21:44.734Z,61.74
2018-07-23T06:24:13.319Z,61.80
2018-07-23T06:26:41.921Z,61.75
2018-07-23T06:29:10.489Z,60.93
2018-07-23T06:31:38.953Z,60.81
2018-07-23T06:34:07.479Z,60.27
2018-07-23T06:36:36.044Z,60.38
2018-07-23T06:39:06.790Z,59.85
2018-07-23T06:41:35.437Z,58.99
2018-07-23T06:44:03.974Z,57.97
2018-07-23T06:46:32.479Z,57.48
2018-07-23T06:49:01.106Z,57.02
2018-07-23T06:51:29.704Z,55.49
2018-07-23T06:53:58.294Z,54.74
2018-07-23T06:56:26.771Z,55.42
2018-07-23T06:58:55.788Z,55.81
2018-07-23T07:01:24.343Z,55.40
2018-07-23T07:03:52.918Z,54.43
2018-07-23T07:06:21.455Z,54.81
2018-07-23T07:08:50.977Z,54.48
2018-07-23T07:11:19.486Z,54.26
2018-07-23T07:13:51.037Z,54.51
2018-07-23T07:16:19.527Z,53.87
2018-07-23T07:18:48.124Z,53.79
2018-07-23T07:21:16.681Z,53.41
2018-07-23T07:23:45.170Z,52.88
2018-07-23T07:26:13.640Z,52.59
2018-07-23T07:32:42.741Z,51.69
2018-07-23T07:35:11.274Z,51.30
2018-07-23T07:38:11.558Z,51.44
2018-07-23T07:40:40.479Z,52.03
2018-07-23T07:43:09.150Z,51.79
2018-07-23T07:45:37.936Z,52.27
2018-07-23T07:48:06.453Z,51.84
2018-07-23T07:50:34.880Z,52.37
2018-07-23T07:53:03.392Z,52.23
2018-07-23T07:56:09.785Z,52.37
2018-07-23T07:58:38.389Z,52.62
2018-07-23T08:01:06.904Z,51.41
2018-07-23T08:03:35.449Z,51.06
2018-07-23T08:06:04.007Z,50.86
2018-07-23T08:08:47.673Z,50.02
2018-07-23T08:11:16.234Z,50.43
2018-07-23T08:13:44.738Z,50.60
2018-07-23T08:16:13.156Z,51.11
2018-07-23T08:18:41.656Z,50.64
2018-07-23T08:21:10.247Z,51.59
2018-07-23T08:23:38.821Z,51.73
2018-07-23T08:26:07.462Z,50.71
2018-07-23T08:28:36.000Z,50.33
2018-07-23T08:31:04.525Z,51.14
2018-07-23T08:33:33.072Z,51.16
2018-07-23T08:36:02.496Z,51.72
2018-07-23T08:38:31.075Z,51.16
2018-07-23T08:40:59.651Z,51.45
2018-07-23T08:43:28.127Z,50.89
2018-07-23T08:45:56.689Z,50.93
2018-07-23T08:48:25.140Z,51.53
2018-07-23T08:50:53.743Z,51.28
2018-07-23T08:53:22.358Z,51.18
2018-07-23T08:55:51.025Z,50.91
2018-07-23T08:58:19.529Z,50.53
2018-07-23T09:00:48.063Z,49.76
2018-07-23T09:03:17.112Z,49.85
2018-07-23T09:05:45.573Z,49.54
2018-07-23T09:08:14.076Z,49.51
2018-07-23T09:10:42.633Z,48.80
2018-07-23T09:13:11.129Z,49.19
2018-07-23T09:15:39.596Z,49.28
2018-07-23T09:18:08.108Z,49.33
2018-07-23T09:20:36.654Z,48.53
2018-07-23T09:23:05.716Z,48.30
2018-07-23T09:25:39.658Z,48.58
2018-07-23T09:28:08.131Z,48.59
2018-07-23T09:30:41.837Z,48.83
2018-07-23T09:33:10.336Z,47.85
2018-07-23T09:35:38.783Z,47.70
2018-07-23T09:38:07.245Z,48.10
2018-07-23T09:40:35.750Z,47.84
2018-07-23T09:43:04.515Z,47.75
2018-07-23T09:45:33.590Z,46.90
2018-07-23T09:48:02.035Z,46.56
2018-07-23T09:50:30.492Z,47.30
2018-07-23T09:52:58.925Z,47.27
2018-07-23T09:55:27.376Z,46.17
2018-07-23T09:57:55.883Z,46.52
2018-07-23T10:03:37.043Z,46.71
2018-07-23T10:06:05.646Z,47.22
2018-07-23T10:08:34.075Z,46.63
2018-07-23T10:11:02.900Z,46.24
2018-07-23T10:13:31.830Z,45.69
2018-07-23T10:16:00.286Z,44.55
2018-07-23T10:18:28.791Z,43.14
2018-07-23T10:20:57.233Z,44.06
2018-07-23T10:23:25.685Z,42.93
2018-07-23T10:25:54.281Z,43.47
2018-07-23T10:28:22.871Z,43.28
2018-07-23T10:30:51.388Z,43.31
2018-07-23T10:33:19.884Z,42.92
2018-07-23T10:35:48.550Z,43.25
2018-07-23T10:38:17.461Z,41.78
2018-07-23T10:40:46.041Z,41.40
2018-07-23T10:43:14.487Z,42.00
2018-07-23T10:45:43.033Z,40.66
2018-07-23T10:48:11.583Z,40.31
2018-07-23T10:50:40.214Z,39.57
2018-07-23T10:53:08.762Z,39.02
2018-07-23T10:55:37.238Z,39.00
2018-07-23T10:58:05.997Z,39.37
2018-07-23T11:00:34.505Z,38.84
2018-07-23T11:03:03.313Z,38.39
2018-07-23T11:05:31.757Z,37.79
2018-07-23T11:08:00.385Z,37.38
2018-07-23T11:10:28.941Z,37.78
2018-07-23T11:12:57.516Z,38.26
2018-07-23T11:15:26.110Z,39.01
2018-07-23T11:17:54.586Z,39.21
2018-07-23T11:20:23.030Z,38.52
2018-07-23T11:22:51.485Z,37.85
2018-07-23T11:25:38.978Z,37.25
2018-07-23T11:27:48.633Z,37.12
2018-07-23T11:30:17.205Z,37.23
2018-07-23T11:32:45.787Z,38.29
2018-07-23T11:35:14.360Z,38.32
2018-07-23T11:37:42.930Z,39.60
2018-07-23T11:40:11.403Z,39.99
2018-07-23T11:42:39.924Z,41.29
2018-07-23T11:45:08.505Z,39.70
2018-07-23T11:47:37.107Z,37.26
2018-07-23T11:50:05.693Z,35.75
2018-07-23T11:52:34.225Z,34.90
2018-07-23T11:55:02.746Z,33.84
2018-07-23T11:57:32.601Z,33.39
2018-07-23T12:00:01.214Z,34.05
2018-07-23T12:02:29.698Z,34.22
2018-07-23T12:04:58.258Z,34.03
2018-07-23T12:07:26.768Z,34.05
2018-07-23T12:09:55.705Z,32.55
2018-07-23T12:12:24.232Z,31.75
2018-07-23T12:14:52.693Z,30.56
2018-07-23T12:17:21.433Z,30.72
2018-07-23T12:19:50.658Z,33.42
2018-07-23T12:22:36.709Z,34.10
2018-07-23T12:25:05.321Z,34.94
2018-07-23T12:27:33.849Z,36.08
2018-07-23T12:30:02.324Z,37.10
2018-07-23T12:32:30.956Z,35.46
2018-07-23T12:34:59.489Z,33.17
2018-07-23T12:37:27.970Z,31.46
2018-07-23T12:39:56.863Z,30.69
2018-07-23T12:42:25.353Z,30.72
2018-07-23T12:44:53.827Z,31.32
2018-07-23T12:47:22.376Z,31.42
2018-07-23T12:49:50.950Z,31.16
2018-07-23T12:52:19.500Z,32.85
2018-07-23T12:54:48.062Z,33.66
2018-07-23T12:57:16.694Z,32.23
2018-07-23T12:59:45.184Z,31.30
2018-07-23T13:02:13.673Z,33.68
2018-07-23T13:04:42.156Z,33.36
2018-07-23T13:07:10.683Z,30.92
2018-07-23T13:09:39.256Z,30.44
2018-07-23T13:12:07.948Z,28.79
2018-07-23T13:14:36.523Z,28.80
2018-07-23T13:17:05.169Z,28.82
2018-07-23T13:19:33.705Z,28.54
2018-07-23T13:22:02.193Z,29.82
2018-07-23T13:24:30.672Z,30.13
2018-07-23T13:26:59.136Z,28.96
2018-07-23T13:29:27.737Z,29.11
2018-07-23T13:31:56.327Z,29.58
2018-07-23T13:34:24.775Z,28.40
2018-07-23T13:36:53.283Z,27.33
2018-07-23T13:39:21.948Z,26.27
2018-07-23T13:41:50.429Z,27.01
2018-07-23T13:44:19.007Z,26.63
2018-07-23T13:46:48.234Z,26.53
2018-07-23T13:49:16.814Z,26.00
2018-07-23T13:51:45.258Z,25.73
2018-07-23T13:54:13.801Z,25.86
2018-07-23T13:56:42.278Z,25.92
2018-07-23T13:59:10.736Z,28.08
2018-07-23T14:01:39.347Z,28.56
2018-07-23T14:04:07.874Z,29.19
2018-07-23T14:06:38.633Z,30.98
2018-07-23T14:09:09.442Z,31.54
2018-07-23T14:11:37.937Z,30.92
2018-07-23T14:14:06.498Z,31.60
2018-07-23T14:16:35.306Z,33.01
2018-07-23T14:19:03.801Z,33.51
2018-07-23T14:21:32.328Z,33.88
2018-07-23T14:24:00.777Z,33.22
2018-07-23T14:26:29.258Z,34.02
2018-07-23T14:28:57.997Z,34.26
2018-07-23T14:31:26.566Z,34.17
2018-07-23T14:33:55.208Z,34.41
2018-07-23T14:36:23.733Z,35.88
2018-07-23T14:38:52.197Z,36.18
2018-07-23T14:41:20.701Z,35.57
2018-07-23T14:43:49.182Z,35.41
2018-07-23T14:46:17.617Z,33.99
2018-07-23T14:48:46.169Z,33.06
2018-07-23T14:51:20.216Z,31.70
2018-07-23T14:53:48.755Z,30.75
2018-07-23T14:56:17.274Z,29.98
2018-07-23T14:58:45.706Z,29.12
2018-07-23T15:01:14.300Z,30.64
2018-07-23T15:03:43.085Z,30.84
2018-07-23T15:06:11.667Z,31.06
2018-07-23T15:08:40.137Z,30.37
2018-07-23T15:11:08.573Z,29.62
2018-07-23T15:13:37.170Z,29.73
2018-07-23T15:16:05.775Z,31.09
2018-07-23T15:18:34.484Z,30.37
2018-07-23T15:21:03.089Z,30.74
2018-07-23T15:23:32.008Z,31.42
2018-07-23T15:26:00.684Z,31.39
2018-07-23T15:28:29.271Z,31.84
2018-07-23T15:30:58.118Z,31.73
2018-07-23T15:33:26.587Z,31.80
2018-07-23T15:35:55.029Z,31.89
2018-07-23T15:38:23.573Z,32.44
2018-07-23T15:40:52.131Z,31.80
2018-07-23T15:43:20.612Z,32.56
2018-07-23T15:45:49.270Z,32.05
2018-07-23T15:48:17.651Z,31.76
2018-07-23T15:50:46.248Z,32.60
2018-07-23T15:53:14.775Z,33.73
2018-07-23T15:55:43.194Z,34.24
2018-07-23T15:58:11.700Z,33.10
2018-07-23T16:00:40.328Z,32.40
2018-07-23T16:03:08.860Z,32.54
2018-07-23T16:05:37.281Z,33.24
2018-07-23T16:08:05.897Z,33.16
2018-07-23T16:10:34.475Z,32.40
2018-07-23T16:13:03.001Z,32.59
2018-07-23T16:15:31.548Z,33.00
2018-07-23T16:18:00.155Z,33.55
2018-07-23T16:20:28.632Z,33.12
2018-07-23T16:23:18.007Z,33.29
2018-07-23T16:25:46.465Z,32.91
2018-07-23T16:28:15.064Z,33.80
2018-07-23T16:30:43.552Z,34.13
2018-07-23T16:33:11.986Z,34.13
2018-07-23T16:35:40.479Z,36.15
2018-07-23T16:38:09.427Z,35.61
2018-07-23T16:40:37.961Z,36.94
2018-07-23T16:43:06.708Z,38.54
2018-07-23T16:45:35.276Z,38.40
2018-07-23T16:48:20.842Z,39.92
2018-07-23T16:50:49.568Z,39.75
2018-07-23T16:53:18.104Z,38.81
2018-07-23T16:55:46.581Z,38.98
2018-07-23T16:58:15.080Z,40.87
2018-07-23T17:00:43.562Z,40.25
2018-07-23T17:03:12.031Z,42.18
2018-07-23T17:05:40.629Z,42.66
2018-07-23T17:08:09.191Z,43.15
2018-07-23T17:10:37.700Z,43.06
2018-07-23T17:13:06.153Z,40.12
2018-07-23T17:15:34.672Z,38.71
2018-07-23T17:18:03.175Z,39.72
2018-07-23T17:20:31.700Z,40.05
2018-07-23T17:23:00.167Z,39.80
2018-07-23T17:25:28.719Z,39.18
2018-07-23T17:27:57.181Z,39.70
2018-07-23T17:30:33.359Z,39.33
2018-07-23T17:33:02.175Z,40.19
2018-07-23T17:35:30.689Z,40.89
2018-07-23T17:37:59.205Z,39.60
2018-07-23T17:40:27.698Z,39.39
2018-07-23T17:42:56.116Z,39.49
2018-07-23T17:45:24.638Z,39.71
2018-07-23T17:47:53.286Z,38.74
2018-07-23T17:50:21.835Z,38.42
2018-07-23T17:52:50.355Z,38.36
2018-07-23T17:55:18.777Z,38.38
2018-07-23T17:57:47.348Z,38.34
2018-07-23T18:00:15.808Z,37.88
2018-07-23T18:02:44.227Z,37.88
2018-07-23T18:05:12.796Z,38.02
2018-07-23T18:07:41.388Z,38.24
2018-07-23T18:10:09.949Z,38.96
2018-07-23T18:12:38.411Z,39.42
2018-07-23T18:15:06.998Z,39.36
2018-07-23T18:17:35.445Z,40.32
2018-07-23T18:20:04.153Z,41.04
2018-07-23T18:22:32.600Z,41.81
2018-07-23T18:25:12.243Z,42.35
2018-07-23T18:27:40.814Z,43.85
2018-07-23T18:30:09.297Z,45.02
2018-07-23T18:32:37.861Z,44.36
2018-07-23T18:35:07.057Z,44.22
2018-07-23T18:37:35.646Z,44.28
2018-07-23T18:40:04.221Z,45.58
2018-07-23T18:42:47.414Z,46.55
2018-07-23T18:45:15.896Z,45.66
2018-07-23T18:47:44.416Z,46.44
2018-07-23T18:50:12.879Z,46.85
2018-07-23T18:52:41.467Z,47.38
2018-07-23T18:55:10.009Z,47.85
2018-07-23T18:57:38.538Z,48.68
2018-07-23T19:00:07.253Z,49.17
2018-07-23T19:02:35.779Z,49.06
2018-07-23T19:05:04.534Z,49.35
2018-07-23T19:07:32.984Z,49.76
2018-07-23T19:10:01.532Z,49.69
2018-07-23T19:12:30.023Z,51.06
2018-07-23T19:14:58.510Z,50.75
2018-07-23T19:17:27.087Z,51.51
2018-07-23T19:19:55.596Z,52.40
2018-07-23T19:22:24.143Z,52.71
2018-07-23T19:24:53.036Z,53.30
2018-07-23T19:27:21.542Z,54.31
2018-07-23T19:29:50.004Z,54.54
2018-07-23T19:32:18.561Z,54.26
2018-07-23T19:34:47.079Z,54.34
2018-07-23T19:37:15.552Z,54.73
2018-07-23T19:39:44.077Z,55.70
2018-07-23T19:42:12.694Z,56.81
2018-07-23T19:44:41.223Z,57.92
2018-07-23T19:47:09.726Z,57.93
2018-07-23T19:49:38.442Z,58.07
2018-07-23T19:52:07.407Z,57.26
2018-07-23T19:54:36.057Z,57.34
2018-07-23T19:57:04.717Z,58.74
2018-07-23T19:59:33.199Z,59.84
2018-07-23T20:02:01.745Z,60.04
2018-07-23T20:04:30.444Z,60.47
2018-07-23T20:06:59.038Z,61.80
2018-07-23T20:09:27.666Z,59.82
2018-07-23T20:11:56.268Z,59.20
2018-07-23T20:14:24.843Z,60.04
2018-07-23T20:16:53.410Z,59.66
2018-07-23T20:19:21.945Z,60.78
2018-07-23T20:21:50.442Z,62.18
2018-07-23T20:24:18.985Z,63.21
2018-07-23T20:26:47.576Z,63.88
2018-07-23T20:29:16.121Z,64.17
2018-07-23T20:31:44.609Z,62.89
2018-07-23T20:34:13.212Z,61.81
2018-07-23T20:36:41.703Z,63.32
2018-07-23T20:39:10.294Z,62.57
2018-07-23T20:41:38.885Z,62.32
2018-07-23T20:44:07.659Z,63.62
2018-07-23T20:46:36.220Z,64.59
2018-07-23T20:49:04.766Z,63.75
2018-07-23T20:51:33.374Z,62.89
2018-07-23T20:54:02.018Z,64.31
2018-07-23T20:56:30.567Z,64.20
2018-07-23T20:58:59.220Z,63.00
2018-07-23T21:01:27.745Z,63.38
2018-07-23T21:03:56.348Z,63.58
2018-07-23T21:06:24.972Z,63.79
2018-07-23T21:08:53.564Z,65.47
2018-07-23T21:11:22.100Z,66.34
2018-07-23T21:13:50.587Z,67.15
2018-07-23T21:16:19.120Z,67.76
2018-07-23T21:18:47.713Z,68.25
2018-07-23T21:21:16.326Z,66.76
2018-07-23T21:23:44.928Z,65.39
2018-07-23T21:26:13.411Z,65.88
2018-07-23T21:28:42.086Z,64.92
2018-07-23T21:31:10.561Z,66.39
2018-07-23T21:33:39.239Z,67.46
2018-07-23T21:36:07.901Z,68.85
2018-07-23T21:38:36.422Z,68.68
2018-07-23T21:41:04.953Z,69.13
2018-07-23T21:43:35.473Z,69.66
2018-07-23T21:46:04.524Z,67.78
2018-07-23T21:48:33.168Z,67.45
2018-07-23T21:51:01.755Z,69.26
2018-07-23T21:54:05.623Z,69.34
2018-07-23T21:56:34.201Z,70.05
2018-07-23T21:59:02.757Z,70.67
2018-07-23T22:01:31.287Z,70.68
2018-07-23T22:03:59.885Z,68.51
2018-07-23T22:06:28.484Z,68.57
2018-07-23T22:08:57.137Z,69.32
2018-07-23T22:11:25.680Z,70.02
2018-07-23T22:13:54.270Z,69.76
2018-07-23T22:16:22.777Z,70.54
2018-07-23T22:18:51.259Z,69.77
2018-07-23T22:21:19.792Z,70.35
2018-07-23T22:23:48.278Z,69.92
2018-07-23T22:26:16.896Z,69.93
2018-07-23T22:28:45.395Z,69.32
2018-07-23T22:31:14.043Z,69.83
2018-07-23T22:33:42.727Z,70.49
2018-07-23T22:36:11.227Z,71.44
2018-07-23T22:38:39.756Z,72.07
2018-07-23T22:41:08.317Z,71.95
2018-07-23T22:43:36.851Z,71.92
2018-07-23T22:46:05.414Z,71.70
2018-07-23T22:48:34.046Z,71.49
2018-07-23T22:51:02.599Z,71.33
2018-07-23T22:53:31.156Z,70.56
2018-07-23T22:55:59.656Z,70.29
2018-07-23T22:58:28.257Z,71.51
2018-07-23T23:00:56.718Z,70.35
2018-07-23T23:03:25.201Z,70.38
2018-07-23T23:05:53.678Z,71.19
2018-07-23T23:08:22.152Z,71.82
2018-07-23T23:10:50.631Z,72.98
2018-07-23T23:13:19.229Z,73.41
2018-07-23T23:15:47.703Z,73.97
2018-07-23T23:18:16.119Z,74.57
2018-07-23T23:20:44.664Z,74.98
2018-07-23T23:23:13.141Z,75.38
2018-07-23T23:25:41.748Z,75.85
2018-07-23T23:28:10.198Z,75.63
2018-07-23T23:30:38.809Z,75.54
2018-07-23T23:33:07.277Z,74.37
2018-07-23T23:35:35.742Z,74.85
2018-07-23T23:38:04.356Z,74.73
2018-07-23T23:40:32.923Z,75.14
2018-07-23T23:43:01.349Z,74.83
2018-07-23T23:45:29.900Z,74.10
2018-07-23T23:47:58.356Z,74.48
2018-07-23T23:50:26.783Z,75.86
2018-07-23T23:52:55.617Z,75.93
2018-07-23T23:55:24.121Z,76.58
2018-07-23T23:57:52.595Z,76.57
